Taiwan Taoyuan International Airport

RCTP · 臺灣省 or 台灣省, Taiwan

罗盘
风向 的 风向 050° Taiwan Taoyuan International Airport 5L/23R
风: 12 kt, 4 beaufort

12 kt

改变
0 1.000 2.000 3.000 4.000 5.000
FEW 800 ft
BKN 1.000 ft
BKN 2.500 ft
METAR RCTP 082000Z 05012KT 9999 -RA FEW008 BKN010 BKN025 19/18 Q1015 NOSIG RMK A2998

METAR Taiwan Taoyuan International Airport - RCTP/TPE

Taiwan Taoyuan International Airport是,Taiwan中的大型机场。 该机场有3条跑道: 5L/23R, 5R/23L 和 5/23. 该领域的国际民航组织标志是RCTP 它的国际航空运输协会代码是TPE.

这份报告是针对2022年12月9日 04:00, 当地时间在Taiwan Taoyuan International Airport进行的。

机场观察

风向为050°,速度为12 kt。

可见度为10 km 或者更多。

有几云在800 ft的高度, 碎云在1.000 ft的高度 和 碎云在2.500 ft的高度。 破损或更高的上限为1.000 ft。

当前天气为光 雨。 温度和风寒是19 °C。 露点为18 °C,相对湿度为94%。 海平面上的气压为1015 hPa (QNH)。

白天

今天,太阳从06:27升起,在17:05降落。 这适用于Taiwan Taoyuan International Airport,世界夏令时可能有所不同。 当地时间与世界标准时间之间的时差为+8 小时。 当前,没有夏令时有效。

公司介绍

我们没有关于这个机场的公司信息。

体会

到Vliegles.nl去找飞行课程,跳伞和其他飞行体验。 浏览页面,了解Taiwan Taoyuan International Airport附近所有可用的活动。 你也可以使用搜索功能来寻找你所在地附近的特定飞行课程、跳伞或其他飞行体验。

跑道

Id 标题 侧风 逆风 侧风 %
5L/23R 049°-229° 12 kt 2 %
5R/23L 049°-229° 12 kt 2 %
5/23 049°-229° 12 kt 2 %

逆风成分最大的方向会被突出显示,并用于横风计算。 这并不一定意味着这个方向在使用。

乌云

800 ft FEW 几云
1.000 ft BKN 碎云
2.500 ft BKN 碎云

温度 & 天气

天气 光 雨
温度 19 °C
露点 18 °C
相对湿度 94%
Kp-index 3 (0-9)

评论

A2998

白天

日出
06:27 (2:09)
中午
11:46
日落
17:05

小工具

你想在你的网站上有一个关于Taiwan Taoyuan International Airport的当前航空天气(METAR)的小部件吗?

显示HTML代码

我们和第三方通过cookies跟踪您在我们网站上的互联网行为。如果你继续,我们认为你同意我们的饼干政策